createdAt,value
2022-07-28T00:01:33.853Z,22.73
2022-07-28T00:04:01.999Z,22.63
2022-07-28T00:06:29.527Z,22.72
2022-07-28T00:08:57.170Z,22.68
2022-07-28T00:11:24.755Z,22.64
2022-07-28T00:13:52.434Z,22.64
2022-07-28T00:16:20.102Z,22.61
2022-07-28T00:18:47.887Z,22.60
2022-07-28T00:21:17.842Z,22.57
2022-07-28T00:23:47.742Z,22.57
2022-07-28T00:26:15.337Z,22.52
2022-07-28T00:28:42.874Z,22.51
2022-07-28T00:31:12.661Z,22.51
2022-07-28T00:33:42.772Z,22.56
2022-07-28T00:36:11.722Z,22.55
2022-07-28T00:38:41.062Z,22.59
2022-07-28T00:41:16.401Z,22.59
2022-07-28T00:43:53.050Z,22.56
2022-07-28T00:46:23.394Z,22.51
2022-07-28T00:48:53.361Z,22.45
2022-07-28T00:51:26.628Z,22.39
2022-07-28T00:53:55.118Z,22.32
2022-07-28T00:56:22.906Z,22.24
2022-07-28T00:58:50.974Z,22.16
2022-07-28T01:01:20.636Z,22.05
2022-07-28T01:03:55.956Z,21.99
2022-07-28T01:06:43.799Z,21.93
2022-07-28T01:09:20.843Z,21.87
2022-07-28T01:12:19.338Z,21.79
2022-07-28T01:15:09.543Z,21.77
2022-07-28T01:17:53.992Z,21.72
2022-07-28T01:20:29.905Z,21.67
2022-07-28T01:23:12.547Z,21.61
2022-07-28T01:26:07.597Z,21.56
2022-07-28T01:28:47.462Z,21.51
2022-07-28T01:31:26.189Z,21.45
2022-07-28T01:34:01.505Z,21.39
2022-07-28T01:36:43.454Z,21.34
2022-07-28T01:39:13.095Z,21.26
2022-07-28T01:41:42.842Z,21.18
2022-07-28T01:44:16.735Z,21.08
2022-07-28T01:46:47.493Z,20.99
2022-07-28T01:49:16.080Z,20.87
2022-07-28T01:51:45.532Z,20.75
2022-07-28T01:54:15.007Z,20.63
2022-07-28T01:56:43.940Z,20.49
2022-07-28T01:59:13.385Z,20.32
2022-07-28T02:01:45.622Z,20.35
2022-07-28T02:04:16.751Z,20.22
2022-07-28T02:06:44.882Z,20.11
2022-07-28T02:09:14.164Z,20.03
2022-07-28T02:11:44.144Z,19.96
2022-07-28T02:14:22.259Z,19.87
2022-07-28T02:16:54.379Z,19.79
2022-07-28T02:19:23.235Z,19.74
2022-07-28T02:21:52.133Z,19.70
2022-07-28T02:24:22.987Z,19.64
2022-07-28T02:27:02.459Z,19.67
2022-07-28T02:29:50.292Z,19.66
2022-07-28T02:32:42.879Z,19.65
2022-07-28T02:35:17.873Z,19.60
2022-07-28T02:37:53.202Z,19.56
2022-07-28T02:40:23.186Z,19.49
2022-07-28T02:42:55.600Z,19.43
2022-07-28T02:45:26.948Z,19.37
2022-07-28T02:47:59.286Z,19.30
2022-07-28T02:50:29.726Z,19.28
2022-07-28T02:53:15.265Z,19.28
2022-07-28T02:55:47.322Z,19.30
2022-07-28T02:58:17.314Z,19.35
2022-07-28T03:00:45.720Z,19.41
2022-07-28T03:03:13.869Z,19.48
2022-07-28T03:05:42.181Z,19.57
2022-07-28T03:08:10.142Z,19.65
2022-07-28T03:10:41.862Z,19.78
2022-07-28T03:13:09.567Z,19.88
2022-07-28T03:15:40.171Z,19.93
2022-07-28T03:18:08.785Z,20.06
2022-07-28T03:20:36.708Z,20.18
2022-07-28T03:23:05.595Z,20.24
2022-07-28T03:25:47.024Z,20.33
2022-07-28T03:28:19.727Z,20.36
2022-07-28T03:30:55.339Z,20.38
2022-07-28T03:33:23.019Z,20.38
2022-07-28T03:35:52.975Z,20.38
2022-07-28T03:38:55.126Z,20.33
2022-07-28T03:41:24.054Z,20.26
2022-07-28T03:43:52.062Z,20.26
2022-07-28T03:46:21.448Z,20.35
2022-07-28T03:48:49.145Z,20.33
2022-07-28T03:51:16.976Z,20.38
2022-07-28T03:53:45.614Z,20.50
2022-07-28T03:56:15.636Z,20.56
2022-07-28T03:58:43.320Z,20.68
2022-07-28T04:01:11.082Z,20.78
2022-07-28T04:03:44.112Z,20.90
2022-07-28T04:06:15.924Z,21.05
2022-07-28T04:08:44.824Z,21.16
2022-07-28T04:11:14.710Z,21.16
2022-07-28T04:13:43.037Z,21.18
2022-07-28T04:16:10.588Z,21.26
2022-07-28T04:18:40.613Z,21.31
2022-07-28T04:21:11.337Z,21.43
2022-07-28T04:23:39.015Z,21.52
2022-07-28T04:26:06.684Z,21.63
2022-07-28T04:28:34.391Z,21.70
2022-07-28T04:31:02.079Z,21.69
2022-07-28T04:33:30.509Z,21.90
2022-07-28T04:35:58.072Z,22.05
2022-07-28T04:38:25.704Z,22.19
2022-07-28T04:40:53.277Z,22.29
2022-07-28T04:43:22.952Z,22.34
2022-07-28T04:45:54.115Z,22.37
2022-07-28T04:48:22.806Z,22.44
2022-07-28T04:50:53.764Z,22.43
2022-07-28T04:53:22.427Z,22.54
2022-07-28T04:55:51.723Z,22.61
2022-07-28T04:58:24.014Z,22.64
2022-07-28T05:00:51.997Z,22.74
2022-07-28T05:03:20.617Z,22.74
2022-07-28T05:05:52.966Z,22.88
2022-07-28T05:08:26.030Z,22.97
2022-07-28T05:10:56.475Z,23.11
2022-07-28T05:13:28.888Z,23.29
2022-07-28T05:15:59.461Z,23.52
2022-07-28T05:18:27.088Z,23.89
2022-07-28T05:20:54.722Z,24.06
2022-07-28T05:23:22.253Z,24.24
2022-07-28T05:25:49.952Z,24.79
2022-07-28T05:28:17.509Z,25.23
2022-07-28T05:30:45.313Z,25.53
2022-07-28T05:33:13.123Z,25.40
2022-07-28T05:35:40.647Z,25.31
2022-07-28T05:38:10.915Z,25.28
2022-07-28T05:40:41.250Z,25.33
2022-07-28T05:43:08.880Z,25.09
2022-07-28T05:45:36.528Z,24.97
2022-07-28T05:48:05.218Z,25.02
2022-07-28T05:50:32.941Z,25.15
2022-07-28T05:53:00.723Z,25.13
2022-07-28T05:55:28.471Z,25.21
2022-07-28T05:57:56.049Z,25.23
2022-07-28T06:00:24.394Z,25.27
2022-07-28T06:02:52.227Z,25.30
2022-07-28T06:05:22.686Z,25.31
2022-07-28T06:07:52.451Z,25.45
2022-07-28T06:10:22.830Z,25.46
2022-07-28T06:12:56.778Z,25.76
2022-07-28T06:15:26.046Z,26.02
2022-07-28T06:17:56.661Z,26.10
2022-07-28T06:20:25.468Z,26.10
2022-07-28T06:22:55.321Z,26.21
2022-07-28T06:25:26.035Z,26.32
2022-07-28T06:27:57.683Z,26.61
2022-07-28T06:30:25.962Z,26.85
2022-07-28T06:32:54.654Z,26.67
2022-07-28T06:35:22.773Z,26.02
2022-07-28T06:37:53.845Z,26.49
2022-07-28T06:40:25.084Z,27.62
2022-07-28T06:42:53.100Z,27.47
2022-07-28T06:45:21.837Z,27.78
2022-07-28T06:47:50.896Z,27.74
2022-07-28T06:50:24.254Z,27.48
2022-07-28T06:52:56.767Z,27.11
2022-07-28T06:55:24.616Z,26.73
2022-07-28T06:57:52.838Z,26.88
2022-07-28T07:00:20.492Z,26.98
2022-07-28T07:02:48.052Z,27.34
2022-07-28T07:05:15.760Z,27.44
2022-07-28T07:07:45.572Z,27.67
2022-07-28T07:10:13.351Z,27.98
2022-07-28T07:12:41.000Z,28.18
2022-07-28T07:15:10.624Z,28.36
2022-07-28T07:17:38.413Z,28.04
2022-07-28T07:20:13.481Z,28.16
2022-07-28T07:22:46.219Z,28.24
2022-07-28T07:25:16.328Z,28.40
2022-07-28T07:27:44.310Z,28.25
2022-07-28T07:30:12.681Z,27.68
2022-07-28T07:32:41.083Z,27.95
2022-07-28T07:35:09.510Z,27.69
2022-07-28T07:37:37.664Z,28.03
2022-07-28T07:40:09.499Z,27.90
2022-07-28T07:42:37.210Z,28.22
2022-07-28T07:45:07.681Z,28.84
2022-07-28T07:47:35.205Z,28.43
2022-07-28T07:50:04.318Z,29.00
2022-07-28T07:52:32.375Z,28.83
2022-07-28T07:54:59.922Z,28.98
2022-07-28T07:57:27.609Z,29.30
2022-07-28T07:59:57.522Z,29.22
2022-07-28T08:02:25.058Z,29.32
2022-07-28T08:04:52.744Z,29.00
2022-07-28T08:07:22.053Z,29.07
2022-07-28T08:09:49.867Z,29.08
2022-07-28T08:12:17.400Z,29.28
2022-07-28T08:14:53.709Z,28.95
2022-07-28T08:17:25.655Z,29.20
2022-07-28T08:19:55.988Z,29.50
2022-07-28T08:22:24.202Z,30.57
2022-07-28T08:24:52.285Z,31.48
2022-07-28T08:27:19.925Z,31.96
2022-07-28T08:29:47.729Z,32.72
2022-07-28T08:32:15.429Z,33.07
2022-07-28T08:34:45.756Z,33.41
2022-07-28T08:37:13.413Z,32.36
2022-07-28T08:39:40.953Z,33.26
2022-07-28T08:42:30.271Z,33.00
2022-07-28T08:45:07.985Z,32.33
2022-07-28T08:47:51.981Z,33.28
2022-07-28T08:50:24.227Z,34.08
2022-07-28T08:52:55.182Z,33.66
2022-07-28T08:55:31.648Z,33.95
2022-07-28T08:58:00.787Z,33.89
2022-07-28T09:00:35.901Z,33.34
2022-07-28T09:03:10.468Z,34.19
2022-07-28T09:05:41.832Z,34.35
2022-07-28T09:08:11.953Z,35.18
2022-07-28T09:10:39.682Z,35.65
2022-07-28T09:13:09.650Z,35.85
2022-07-28T09:15:41.357Z,36.65
2022-07-28T09:18:09.047Z,37.16
2022-07-28T09:20:40.973Z,37.37
2022-07-28T09:23:41.771Z,35.45
2022-07-28T09:26:13.013Z,34.36
2022-07-28T09:28:58.247Z,35.26
2022-07-28T09:31:30.460Z,35.48
2022-07-28T09:34:06.374Z,35.81
2022-07-28T09:36:42.209Z,36.97
2022-07-28T09:39:10.080Z,38.03
2022-07-28T09:41:56.292Z,37.74
2022-07-28T09:44:26.517Z,37.14
2022-07-28T09:46:54.844Z,36.04
2022-07-28T09:49:28.516Z,35.88
2022-07-28T09:52:05.922Z,36.90
2022-07-28T09:54:38.716Z,37.14
2022-07-28T09:57:12.024Z,37.08
2022-07-28T09:59:50.544Z,37.32
2022-07-28T10:02:29.434Z,37.04
2022-07-28T10:05:00.135Z,37.52
2022-07-28T10:07:30.707Z,36.88
2022-07-28T10:10:01.218Z,37.38
2022-07-28T10:12:32.761Z,37.80
2022-07-28T10:15:35.353Z,37.61
2022-07-28T10:18:03.907Z,36.78
2022-07-28T10:20:33.489Z,34.73
2022-07-28T10:23:11.542Z,34.90
2022-07-28T10:25:41.244Z,36.18
2022-07-28T10:28:10.336Z,36.52
2022-07-28T10:30:41.952Z,36.88
2022-07-28T10:33:15.726Z,36.65
2022-07-28T10:35:54.641Z,36.88
2022-07-28T10:38:26.440Z,36.20
2022-07-28T10:40:56.514Z,36.30
2022-07-28T10:43:25.640Z,37.58
2022-07-28T10:46:05.725Z,37.83
2022-07-28T10:48:36.829Z,37.96
2022-07-28T10:51:06.003Z,37.83
2022-07-28T10:53:49.030Z,37.18
2022-07-28T10:56:24.018Z,36.03
2022-07-28T10:59:08.785Z,35.20
2022-07-28T11:01:49.588Z,34.70
2022-07-28T11:04:48.119Z,35.45
2022-07-28T11:07:17.984Z,35.63
2022-07-28T11:09:47.773Z,36.34
2022-07-28T11:12:16.328Z,35.23
2022-07-28T11:14:45.730Z,36.26
2022-07-28T11:17:23.827Z,36.69
2022-07-28T11:22:45.532Z,36.06
2022-07-28T11:25:18.771Z,35.82
2022-07-28T11:27:50.285Z,35.71
2022-07-28T11:30:21.315Z,36.55
2022-07-28T11:32:53.279Z,37.58
2022-07-28T11:35:25.575Z,37.15
2022-07-28T11:38:02.211Z,36.62
2022-07-28T11:40:54.566Z,36.22
2022-07-28T11:43:36.630Z,36.28
2022-07-28T11:46:07.051Z,35.56
2022-07-28T11:48:41.648Z,36.63
2022-07-28T11:51:13.750Z,36.55
2022-07-28T11:53:41.240Z,36.91
2022-07-28T11:56:25.982Z,36.98
2022-07-28T11:59:04.000Z,37.10
2022-07-28T12:01:38.375Z,36.79
2022-07-28T12:04:12.059Z,34.22
2022-07-28T12:06:42.983Z,33.33
2022-07-28T12:09:13.557Z,32.48
2022-07-28T12:11:42.839Z,32.23
2022-07-28T12:14:16.972Z,33.19
2022-07-28T12:16:47.057Z,34.00
2022-07-28T12:19:32.912Z,35.17
2022-07-28T12:22:01.244Z,36.13
2022-07-28T12:24:44.659Z,36.86
2022-07-28T12:27:16.753Z,36.05
2022-07-28T12:29:56.556Z,34.02
2022-07-28T12:32:31.696Z,34.47
2022-07-28T12:34:59.551Z,34.73
2022-07-28T12:37:27.465Z,35.25
2022-07-28T12:39:55.262Z,35.08
2022-07-28T12:42:25.157Z,34.79
2022-07-28T12:44:54.261Z,34.61
2022-07-28T12:47:34.213Z,34.20
2022-07-28T12:50:15.616Z,33.70
2022-07-28T12:52:45.823Z,33.48
2022-07-28T12:55:26.660Z,33.17
2022-07-28T12:57:55.393Z,33.00
2022-07-28T13:00:35.209Z,32.67
2022-07-28T13:03:24.227Z,32.56
2022-07-28T13:06:04.972Z,33.04
2022-07-28T13:08:44.300Z,33.05
2022-07-28T13:11:42.794Z,32.71
2022-07-28T13:14:03.481Z,32.60
2022-07-28T13:16:33.079Z,32.58
2022-07-28T13:19:04.491Z,31.96
2022-07-28T13:21:58.621Z,32.06
2022-07-28T13:24:29.821Z,32.47
2022-07-28T13:26:59.072Z,32.63
2022-07-28T13:29:26.905Z,32.32
2022-07-28T13:31:57.427Z,32.45
2022-07-28T13:34:25.091Z,32.71
2022-07-28T13:36:56.923Z,32.70
2022-07-28T13:39:26.675Z,32.87
2022-07-28T13:41:57.252Z,32.46
2022-07-28T13:44:26.168Z,32.21
2022-07-28T13:46:59.070Z,31.80
2022-07-28T13:49:28.403Z,31.90
2022-07-28T13:51:56.358Z,32.11
2022-07-28T13:54:25.086Z,32.06
2022-07-28T13:56:53.204Z,31.89
2022-07-28T13:59:20.933Z,31.87
2022-07-28T14:01:49.513Z,31.96
2022-07-28T14:04:18.652Z,31.81
2022-07-28T14:06:51.829Z,31.67
2022-07-28T14:09:21.262Z,31.63
2022-07-28T14:11:53.457Z,31.78
2022-07-28T14:14:27.434Z,31.65
2022-07-28T14:16:55.672Z,31.58
2022-07-28T14:19:39.082Z,31.69
2022-07-28T14:22:13.729Z,31.66
2022-07-28T14:24:44.770Z,31.67
2022-07-28T14:27:12.291Z,31.51
2022-07-28T14:29:42.564Z,31.33
2022-07-28T14:32:12.589Z,31.46
2022-07-28T14:34:40.766Z,31.46
2022-07-28T14:37:09.594Z,31.51
2022-07-28T14:39:38.639Z,31.34
2022-07-28T14:42:10.387Z,31.18
2022-07-28T14:44:37.990Z,31.36
2022-07-28T14:47:07.597Z,31.48
2022-07-28T14:49:36.469Z,31.57
2022-07-28T14:52:05.060Z,31.53
2022-07-28T14:54:37.852Z,31.49
2022-07-28T14:57:05.783Z,31.45
2022-07-28T14:59:35.983Z,31.42
2022-07-28T15:02:16.165Z,31.49
2022-07-28T15:04:43.867Z,31.38
2022-07-28T15:07:12.119Z,31.32
2022-07-28T15:09:43.415Z,31.29
2022-07-28T15:12:12.688Z,31.34
2022-07-28T15:14:40.278Z,31.40
2022-07-28T15:17:07.987Z,31.39
2022-07-28T15:19:36.110Z,31.38
2022-07-28T15:22:03.678Z,31.45
2022-07-28T15:24:33.625Z,31.38
2022-07-28T15:27:04.386Z,31.37
2022-07-28T15:29:35.532Z,31.21
2022-07-28T15:32:04.313Z,31.28
2022-07-28T15:34:35.303Z,31.26
2022-07-28T15:37:05.285Z,31.29
2022-07-28T15:39:32.905Z,31.26
2022-07-28T15:42:01.255Z,31.29
2022-07-28T15:44:29.937Z,31.18
2022-07-28T15:46:59.939Z,31.13
2022-07-28T15:49:31.425Z,31.14
2022-07-28T15:52:00.922Z,31.17
2022-07-28T15:54:29.001Z,31.18
2022-07-28T15:56:56.699Z,31.03
2022-07-28T15:59:24.831Z,30.90
2022-07-28T16:01:54.572Z,30.78
2022-07-28T16:04:22.135Z,30.64
2022-07-28T16:07:14.493Z,30.52
2022-07-28T16:09:45.285Z,30.46
2022-07-28T16:12:18.304Z,30.44
2022-07-28T16:14:52.554Z,30.45
2022-07-28T16:17:20.455Z,30.43
2022-07-28T16:19:49.837Z,30.34
2022-07-28T16:22:20.349Z,30.33
2022-07-28T16:24:48.761Z,30.31
2022-07-28T16:27:18.257Z,30.27
2022-07-28T16:29:55.676Z,30.25
2022-07-28T16:32:26.223Z,30.19
2022-07-28T16:34:54.084Z,30.17
2022-07-28T16:37:21.716Z,30.11
2022-07-28T16:39:52.138Z,30.08
2022-07-28T16:42:23.010Z,30.05
2022-07-28T16:44:50.608Z,30.02
2022-07-28T16:47:18.750Z,29.96
2022-07-28T16:49:47.052Z,29.90
2022-07-28T16:52:15.904Z,29.84
2022-07-28T16:54:43.796Z,29.77
2022-07-28T16:57:13.942Z,29.69
2022-07-28T16:59:47.042Z,29.62
2022-07-28T17:02:16.851Z,29.57
2022-07-28T17:04:48.181Z,29.51
2022-07-28T17:07:15.950Z,29.45
2022-07-28T17:09:44.249Z,29.38
2022-07-28T17:12:13.047Z,29.26
2022-07-28T17:14:48.613Z,29.21
2022-07-28T17:17:16.373Z,29.17
2022-07-28T17:19:48.412Z,29.09
2022-07-28T17:22:16.731Z,29.01
2022-07-28T17:24:48.332Z,28.91
2022-07-28T17:30:09.448Z,28.71
2022-07-28T17:32:37.019Z,28.59
2022-07-28T17:35:04.980Z,28.48
2022-07-28T17:37:32.560Z,28.39
2022-07-28T17:40:01.057Z,28.23
2022-07-28T17:42:34.136Z,28.16
2022-07-28T17:45:01.745Z,28.03
2022-07-28T17:47:37.294Z,27.87
2022-07-28T17:50:07.533Z,27.73
2022-07-28T17:52:35.194Z,27.58
2022-07-28T17:55:20.629Z,27.46
2022-07-28T17:57:51.791Z,27.33
2022-07-28T18:00:25.622Z,27.18
2022-07-28T18:02:53.322Z,27.06
2022-07-28T18:05:22.559Z,26.95
2022-07-28T18:07:54.812Z,26.83
2022-07-28T18:10:28.161Z,26.73
2022-07-28T18:12:55.743Z,26.64
2022-07-28T18:15:27.200Z,26.55
2022-07-28T18:17:58.566Z,26.49
2022-07-28T18:20:29.290Z,26.41
2022-07-28T18:22:58.428Z,26.35
2022-07-28T18:25:27.282Z,26.31
2022-07-28T18:27:55.256Z,26.27
2022-07-28T18:30:23.995Z,26.23
2022-07-28T18:32:53.691Z,26.17
2022-07-28T18:35:22.633Z,26.13
2022-07-28T18:37:50.698Z,26.09
2022-07-28T18:40:21.468Z,25.99
2022-07-28T18:42:49.916Z,26.00
2022-07-28T18:45:20.320Z,25.90
2022-07-28T18:47:48.277Z,25.85
2022-07-28T18:50:30.377Z,25.82
2022-07-28T18:52:59.879Z,25.77
2022-07-28T18:55:27.508Z,25.68
2022-07-28T18:57:55.179Z,25.63
2022-07-28T19:00:22.836Z,25.54
2022-07-28T19:02:50.521Z,25.44
2022-07-28T19:05:18.337Z,25.38
2022-07-28T19:07:45.912Z,25.31
2022-07-28T19:10:13.504Z,25.25
2022-07-28T19:12:41.109Z,25.19
2022-07-28T19:15:09.410Z,25.14
2022-07-28T19:17:39.868Z,25.07
2022-07-28T19:20:11.666Z,25.02
2022-07-28T19:22:40.715Z,24.97
2022-07-28T19:25:11.045Z,24.91
2022-07-28T19:27:39.731Z,24.83
2022-07-28T19:30:09.454Z,24.78
2022-07-28T19:32:41.736Z,24.74
2022-07-28T19:35:13.563Z,24.71
2022-07-28T19:37:41.167Z,24.68
2022-07-28T19:40:11.931Z,24.69
2022-07-28T19:42:39.559Z,24.70
2022-07-28T19:45:10.663Z,24.76
2022-07-28T19:47:40.583Z,24.79
2022-07-28T19:50:08.591Z,24.83
2022-07-28T19:52:38.529Z,24.86
2022-07-28T19:55:07.798Z,24.90
2022-07-28T19:57:39.354Z,24.95
2022-07-28T20:00:09.503Z,25.00
2022-07-28T20:02:37.837Z,25.05
2022-07-28T20:05:07.443Z,25.06
2022-07-28T20:07:35.134Z,25.07
2022-07-28T20:10:02.975Z,25.08
2022-07-28T20:12:36.156Z,25.09
2022-07-28T20:15:06.533Z,25.13
2022-07-28T20:17:41.177Z,25.13
2022-07-28T20:20:11.823Z,25.14
2022-07-28T20:22:42.474Z,25.18
2022-07-28T20:25:14.498Z,25.16
2022-07-28T20:27:43.812Z,25.18
2022-07-28T20:30:13.150Z,25.16
2022-07-28T20:32:44.179Z,25.17
2022-07-28T20:35:12.726Z,25.17
2022-07-28T20:37:41.628Z,25.13
2022-07-28T20:40:12.652Z,25.13
2022-07-28T20:42:40.316Z,25.13
2022-07-28T20:45:08.950Z,25.14
2022-07-28T20:47:36.571Z,25.14
2022-07-28T20:50:05.262Z,25.13
2022-07-28T20:52:34.011Z,25.18
2022-07-28T20:55:02.160Z,25.17
2022-07-28T20:57:30.729Z,25.15
2022-07-28T20:59:58.409Z,25.12
2022-07-28T21:02:26.044Z,25.07
2022-07-28T21:04:53.745Z,25.08
2022-07-28T21:07:59.999Z,25.03
2022-07-28T21:10:10.685Z,24.97
2022-07-28T21:12:39.078Z,24.94
2022-07-28T21:15:09.429Z,24.90
2022-07-28T21:17:39.679Z,24.86
2022-07-28T21:20:10.294Z,24.81
2022-07-28T21:22:38.141Z,24.73
2022-07-28T21:25:07.523Z,24.65
2022-07-28T21:27:49.263Z,24.60
2022-07-28T21:30:19.178Z,24.52
2022-07-28T21:32:55.911Z,24.42
2022-07-28T21:35:23.584Z,24.34
2022-07-28T21:37:51.163Z,24.29
2022-07-28T21:40:18.746Z,24.26
2022-07-28T21:42:47.357Z,24.29
2022-07-28T21:45:15.131Z,24.32
2022-07-28T21:47:43.146Z,24.40
2022-07-28T21:50:11.511Z,24.40
2022-07-28T21:52:39.411Z,24.44
2022-07-28T21:55:09.196Z,24.41
2022-07-28T21:57:39.431Z,24.40
2022-07-28T22:00:10.905Z,24.36
2022-07-28T22:02:41.911Z,24.30
2022-07-28T22:05:12.656Z,24.24
2022-07-28T22:07:40.371Z,24.22
2022-07-28T22:10:08.757Z,24.19
2022-07-28T22:12:36.658Z,24.16
2022-07-28T22:15:05.138Z,24.10
2022-07-28T22:17:32.805Z,24.05
2022-07-28T22:20:00.405Z,24.23
2022-07-28T22:22:27.969Z,24.32
2022-07-28T22:24:55.868Z,24.38
2022-07-28T22:27:24.011Z,24.38
2022-07-28T22:29:52.402Z,24.32
2022-07-28T22:32:29.134Z,24.26
2022-07-28T22:35:00.369Z,24.19
2022-07-28T22:37:27.998Z,24.15
2022-07-28T22:39:55.757Z,24.08
2022-07-28T22:42:26.088Z,24.03
2022-07-28T22:44:53.774Z,23.96
2022-07-28T22:47:21.784Z,23.90
2022-07-28T22:49:53.734Z,23.84
2022-07-28T22:52:27.815Z,23.80
2022-07-28T22:57:41.751Z,23.75
2022-07-28T23:00:09.962Z,23.74
2022-07-28T23:02:37.664Z,23.72
2022-07-28T23:05:06.571Z,23.75
2022-07-28T23:07:53.350Z,23.74
2022-07-28T23:10:26.684Z,23.74
2022-07-28T23:12:58.406Z,23.73
2022-07-28T23:15:41.183Z,23.76
2022-07-28T23:18:14.280Z,23.77
2022-07-28T23:20:42.630Z,23.76
2022-07-28T23:23:11.531Z,23.72
2022-07-28T23:25:42.963Z,23.70
2022-07-28T23:28:11.397Z,23.64
2022-07-28T23:30:39.197Z,23.60
2022-07-28T23:33:07.057Z,23.57
2022-07-28T23:35:35.859Z,23.55
2022-07-28T23:38:03.880Z,23.55
2022-07-28T23:40:31.663Z,23.54
2022-07-28T23:43:01.822Z,23.53
2022-07-28T23:45:29.522Z,23.46
2022-07-28T23:47:58.998Z,23.52
2022-07-28T23:50:28.083Z,23.49
2022-07-28T23:53:00.308Z,23.44
2022-07-28T23:55:28.589Z,23.36
2022-07-28T23:57:56.291Z,23.35
